Santa Mae Laura — CUQJ — position and weather

sailwx.info

Track history (hours):
 
Tides and Currents Weather Stations Pressure Air Temp Water Temp Dewpoint Dewpoint Depression Visibility Wind Speed Wind Dir Waves Ship Positions

Santa Mae Laura

Last reported at 2016-Apr-07 01:15 UTC. Time now 2016-May-04 06:02 UTC.
Position N 43°39' W 006°15'.
Warning: this ship's position is 27 days out of date.

Length 24 m.

Type: Fishing. MMSI: 263432000.

Date/timePositionNaut miles runAvg speedWind from/ knotsBaromVisibWave heightAir tempDewpointWater temp
2016-Apr-07 01:15N 43°39' W 006°15'8 9.6
2016-Apr-07 00:28N 43°38' W 006°05'21 4.2
2016-Apr-06 19:33N 43°45' W 005°38'7 4.8
2016-Apr-06 18:06N 43°47' W 005°29'2 4.1
2016-Apr-06 17:31N 43°46' W 005°26'3 1.0
2016-Apr-06 14:33N 43°47' W 005°22'4 3.7
2016-Apr-06 13:30N 43°46' W 005°27'10 2.4
2016-Apr-06 09:25N 43°50' W 005°40'7 3.9
2016-Apr-06 07:32N 43°47' W 005°30'4 4.0
2016-Apr-06 06:32N 43°46' W 005°25'5 5.1
2016-Apr-06 05:32N 43°47' W 005°18'145 3.2
2016-Apr-04 08:23N 43°43' W 001°57'3 3.3
2016-Apr-04 07:33N 43°45' W 001°59'4 0.2
2016-Apr-03 11:33N 43°41' W 002°00'3 0.8
2016-Apr-03 07:28N 43°42' W 001°56'1 1.2
2016-Apr-03 06:33N 43°41' W 001°55'3 2.8
2016-Apr-03 05:33N 43°39' W 001°52'7 6.8
2016-Apr-03 04:33N 43°36' W 002°01'11 7.7
2016-Apr-03 03:06N 43°26' W 001°57'143 3.1
2016-Apr-01 05:19N 43°40' W 005°13'7 8.7
2016-Apr-01 04:33N 43°40' W 005°22'9 8.9
2016-Apr-01 03:33N 43°40' W 005°34'9 8.8
2016-Apr-01 02:30N 43°41' W 005°47'7 1.7
2016-Mar-31 22:22N 43°38' W 005°56'7 8.2
2016-Mar-31 21:33N 43°42' W 005°48'10 8.6
2016-Mar-31 20:21N 43°41' W 005°33'6 8.1
2016-Mar-31 19:34N 43°40' W 005°24'8 7.9
2016-Mar-31 18:34N 43°40' W 005°14'13 1.7
2016-Mar-31 11:10N 43°41' W 004°56'16 8.7
2016-Mar-31 09:22N 43°46' W 005°16'3 4.2
2016-Mar-31 08:33N 43°47' W 005°21'4 3.6
2016-Mar-31 07:33N 43°46' W 005°26'4 3.7
2016-Mar-31 06:22N 43°47' W 005°31'3 3.9
2016-Mar-31 05:30N 43°48' W 005°36'7 7.5
2016-Mar-31 04:31N 43°45' W 005°45'8 7.6
2016-Mar-31 03:24N 43°40' W 005°54'1 0.1
2016-Mar-30 21:22N 43°39' W 005°55'7 8.1
2016-Mar-30 20:31N 43°43' W 005°47'15 6.4
2016-Mar-30 18:11N 43°49' W 005°28'8 3.9
2016-Mar-30 16:13N 43°48' W 005°17'15 8.4
2016-Mar-30 14:28N 43°42' W 004°58'18 3.0
2016-Mar-30 08:33N 43°49' W 005°21'5 3.8
2016-Mar-30 07:17N 43°47' W 005°27'7 4.0
2016-Mar-30 05:33N 43°49' W 005°37'6 5.6
2016-Mar-30 04:34N 43°46' W 005°43'5 5.2
2016-Mar-30 03:33N 43°43' W 005°49'8 6.6
2016-Mar-30 02:24N 43°38' W 005°57'5 0.8
2016-Mar-29 20:04N 43°41' W 005°51'5 7.7
2016-Mar-29 19:26N 43°43' W 005°45'6 6.2
2016-Mar-29 18:31N 43°44' W 005°37'6 5.6
2016-Mar-29 17:32N 43°45' W 005°30'4 4.1
2016-Mar-29 16:32N 43°46' W 005°24'2 0.9
2016-Mar-29 14:32N 43°47' W 005°22'4 3.9
2016-Mar-29 13:33N 43°47' W 005°27'4 4.0
2016-Mar-29 12:33N 43°48' W 005°33'2 1.8
2016-Mar-29 11:29N 43°49' W 005°35'3 2.6
2016-Mar-29 10:20N 43°47' W 005°31'3 4.0
2016-Mar-29 09:29N 43°46' W 005°27'2 2.0
2016-Mar-29 08:27N 43°49' W 005°27'1 1.4
2016-Mar-29 07:31N 43°49' W 005°26'2 1.1
2016-Mar-29 05:33N 43°47' W 005°27'9 9.2
2016-Mar-29 04:33N 43°44' W 005°39'11 9.7
2016-Mar-29 03:23N 43°40' W 005°54'  
Track history (hours):
 
Tides and Currents Weather Stations Pressure Air Temp Water Temp Dewpoint Dewpoint Depression Visibility Wind Speed Wind Dir Waves Ship Positions

Santa Mae Laura

Last reported at 2016-Apr-07 01:15 UTC. Time now 2016-May-04 06:02 UTC.
Position N 43°39' W 006°15'.
Warning: this ship's position is 27 days out of date.

Length 24 m.

Type: Fishing. MMSI: 263432000.

Date/timePositionNaut miles runAvg speedWind from/ knotsBaromVisibWave heightAir tempDewpointWater temp
2016-Apr-07 01:15N 43°39' W 006°15'8 9.6
2016-Apr-07 00:28N 43°38' W 006°05'21 4.2
2016-Apr-06 19:33N 43°45' W 005°38'7 4.8
2016-Apr-06 18:06N 43°47' W 005°29'2 4.1
2016-Apr-06 17:31N 43°46' W 005°26'3 1.0
2016-Apr-06 14:33N 43°47' W 005°22'4 3.7
2016-Apr-06 13:30N 43°46' W 005°27'10 2.4
2016-Apr-06 09:25N 43°50' W 005°40'7 3.9
2016-Apr-06 07:32N 43°47' W 005°30'4 4.0
2016-Apr-06 06:32N 43°46' W 005°25'5 5.1
2016-Apr-06 05:32N 43°47' W 005°18'145 3.2
2016-Apr-04 08:23N 43°43' W 001°57'3 3.3
2016-Apr-04 07:33N 43°45' W 001°59'4 0.2
2016-Apr-03 11:33N 43°41' W 002°00'3 0.8
2016-Apr-03 07:28N 43°42' W 001°56'1 1.2
2016-Apr-03 06:33N 43°41' W 001°55'3 2.8
2016-Apr-03 05:33N 43°39' W 001°52'7 6.8
2016-Apr-03 04:33N 43°36' W 002°01'11 7.7
2016-Apr-03 03:06N 43°26' W 001°57'143 3.1
2016-Apr-01 05:19N 43°40' W 005°13'7 8.7
2016-Apr-01 04:33N 43°40' W 005°22'9 8.9
2016-Apr-01 03:33N 43°40' W 005°34'9 8.8
2016-Apr-01 02:30N 43°41' W 005°47'7 1.7
2016-Mar-31 22:22N 43°38' W 005°56'7 8.2
2016-Mar-31 21:33N 43°42' W 005°48'10 8.6
2016-Mar-31 20:21N 43°41' W 005°33'6 8.1
2016-Mar-31 19:34N 43°40' W 005°24'8 7.9
2016-Mar-31 18:34N 43°40' W 005°14'13 1.7
2016-Mar-31 11:10N 43°41' W 004°56'16 8.7
2016-Mar-31 09:22N 43°46' W 005°16'3 4.2
2016-Mar-31 08:33N 43°47' W 005°21'4 3.6
2016-Mar-31 07:33N 43°46' W 005°26'4 3.7
2016-Mar-31 06:22N 43°47' W 005°31'3 3.9
2016-Mar-31 05:30N 43°48' W 005°36'7 7.5
2016-Mar-31 04:31N 43°45' W 005°45'8 7.6
2016-Mar-31 03:24N 43°40' W 005°54'1 0.1
2016-Mar-30 21:22N 43°39' W 005°55'7 8.1
2016-Mar-30 20:31N 43°43' W 005°47'15 6.4
2016-Mar-30 18:11N 43°49' W 005°28'8 3.9
2016-Mar-30 16:13N 43°48' W 005°17'15 8.4
2016-Mar-30 14:28N 43°42' W 004°58'18 3.0
2016-Mar-30 08:33N 43°49' W 005°21'5 3.8
2016-Mar-30 07:17N 43°47' W 005°27'7 4.0
2016-Mar-30 05:33N 43°49' W 005°37'6 5.6
2016-Mar-30 04:34N 43°46' W 005°43'5 5.2
2016-Mar-30 03:33N 43°43' W 005°49'8 6.6
2016-Mar-30 02:24N 43°38' W 005°57'5 0.8
2016-Mar-29 20:04N 43°41' W 005°51'5 7.7
2016-Mar-29 19:26N 43°43' W 005°45'6 6.2
2016-Mar-29 18:31N 43°44' W 005°37'6 5.6
2016-Mar-29 17:32N 43°45' W 005°30'4 4.1
2016-Mar-29 16:32N 43°46' W 005°24'2 0.9
2016-Mar-29 14:32N 43°47' W 005°22'4 3.9
2016-Mar-29 13:33N 43°47' W 005°27'4 4.0
2016-Mar-29 12:33N 43°48' W 005°33'2 1.8
2016-Mar-29 11:29N 43°49' W 005°35'3 2.6
2016-Mar-29 10:20N 43°47' W 005°31'3 4.0
2016-Mar-29 09:29N 43°46' W 005°27'2 2.0
2016-Mar-29 08:27N 43°49' W 005°27'1 1.4
2016-Mar-29 07:31N 43°49' W 005°26'2 1.1
2016-Mar-29 05:33N 43°47' W 005°27'9 9.2
2016-Mar-29 04:33N 43°44' W 005°39'11 9.7
2016-Mar-29 03:23N 43°40' W 005°54'  

Dump ship's entire track history